sensor_id;sensor_type;location;lat;lon;timestamp;P1;durP1;ratioP1;P2;durP2;ratioP2
12675;SDS011;63820;65.654;21.944;2024-02-15T00:01:28;10.67;;;4.33;;
12675;SDS011;63820;65.654;21.944;2024-02-15T00:04:12;9.93;;;4.57;;
12675;SDS011;63820;65.654;21.944;2024-02-15T00:06:56;9.23;;;3.90;;
12675;SDS011;63820;65.654;21.944;2024-02-15T00:09:39;10.07;;;5.10;;
12675;SDS011;63820;65.654;21.944;2024-02-15T00:12:24;9.00;;;4.27;;
12675;SDS011;63820;65.654;21.944;2024-02-15T00:15:08;12.17;;;4.90;;
12675;SDS011;63820;65.654;21.944;2024-02-15T00:17:53;7.13;;;4.00;;
12675;SDS011;63820;65.654;21.944;2024-02-15T00:20:37;8.80;;;4.57;;
12675;SDS011;63820;65.654;21.944;2024-02-15T00:23:22;10.97;;;4.43;;
12675;SDS011;63820;65.654;21.944;2024-02-15T00:26:06;9.53;;;4.17;;
12675;SDS011;63820;65.654;21.944;2024-02-15T00:28:50;9.63;;;4.13;;
12675;SDS011;63820;65.654;21.944;2024-02-15T00:31:34;12.23;;;4.37;;
12675;SDS011;63820;65.654;21.944;2024-02-15T00:34:22;9.10;;;4.47;;
12675;SDS011;63820;65.654;21.944;2024-02-15T00:37:06;9.90;;;3.97;;
12675;SDS011;63820;65.654;21.944;2024-02-15T00:39:50;8.43;;;4.37;;
12675;SDS011;63820;65.654;21.944;2024-02-15T00:42:35;9.17;;;4.43;;
12675;SDS011;63820;65.654;21.944;2024-02-15T00:45:19;8.33;;;3.67;;
12675;SDS011;63820;65.654;21.944;2024-02-15T00:48:04;11.53;;;4.60;;
12675;SDS011;63820;65.654;21.944;2024-02-15T00:50:49;12.33;;;4.70;;
12675;SDS011;63820;65.654;21.944;2024-02-15T00:53:34;8.83;;;4.67;;
12675;SDS011;63820;65.654;21.944;2024-02-15T00:56:18;9.80;;;4.60;;
12675;SDS011;63820;65.654;21.944;2024-02-15T00:59:02;9.87;;;4.33;;
12675;SDS011;63820;65.654;21.944;2024-02-15T01:01:46;9.57;;;4.47;;
12675;SDS011;63820;65.654;21.944;2024-02-15T01:04:31;11.10;;;4.37;;
12675;SDS011;63820;65.654;21.944;2024-02-15T01:07:15;8.67;;;4.23;;
12675;SDS011;63820;65.654;21.944;2024-02-15T01:09:59;9.47;;;4.77;;
12675;SDS011;63820;65.654;21.944;2024-02-15T01:12:43;10.30;;;4.73;;
12675;SDS011;63820;65.654;21.944;2024-02-15T01:15:27;10.03;;;4.60;;
12675;SDS011;63820;65.654;21.944;2024-02-15T01:18:11;10.00;;;4.57;;
12675;SDS011;63820;65.654;21.944;2024-02-15T01:20:55;11.97;;;4.97;;
12675;SDS011;63820;65.654;21.944;2024-02-15T01:23:40;10.63;;;5.13;;
12675;SDS011;63820;65.654;21.944;2024-02-15T01:26:24;11.60;;;5.00;;
12675;SDS011;63820;65.654;21.944;2024-02-15T01:29:09;14.50;;;4.90;;
12675;SDS011;63820;65.654;21.944;2024-02-15T01:31:55;11.63;;;5.30;;
12675;SDS011;63820;65.654;21.944;2024-02-15T01:34:40;7.53;;;3.77;;
12675;SDS011;63820;65.654;21.944;2024-02-15T01:37:24;9.93;;;4.93;;
12675;SDS011;63820;65.654;21.944;2024-02-15T01:40:08;11.53;;;4.57;;
12675;SDS011;63820;65.654;21.944;2024-02-15T01:42:56;13.10;;;5.50;;
12675;SDS011;63820;65.654;21.944;2024-02-15T01:45:41;9.07;;;4.70;;
12675;SDS011;63820;65.654;21.944;2024-02-15T01:48:26;13.70;;;5.70;;
12675;SDS011;63820;65.654;21.944;2024-02-15T01:51:11;8.27;;;4.17;;
12675;SDS011;63820;65.654;21.944;2024-02-15T01:53:56;10.20;;;5.60;;
12675;SDS011;63820;65.654;21.944;2024-02-15T01:56:40;10.73;;;5.50;;
12675;SDS011;63820;65.654;21.944;2024-02-15T01:59:24;12.90;;;4.77;;
12675;SDS011;63820;65.654;21.944;2024-02-15T02:02:10;8.23;;;4.37;;
12675;SDS011;63820;65.654;21.944;2024-02-15T02:04:56;12.57;;;4.93;;
12675;SDS011;63820;65.654;21.944;2024-02-15T02:07:41;13.37;;;5.70;;
12675;SDS011;63820;65.654;21.944;2024-02-15T02:10:25;10.90;;;5.70;;
12675;SDS011;63820;65.654;21.944;2024-02-15T02:13:11;11.70;;;5.87;;
12675;SDS011;63820;65.654;21.944;2024-02-15T02:15:55;9.23;;;5.23;;
12675;SDS011;63820;65.654;21.944;2024-02-15T02:18:40;10.60;;;5.10;;
12675;SDS011;63820;65.654;21.944;2024-02-15T02:21:28;13.10;;;5.70;;
12675;SDS011;63820;65.654;21.944;2024-02-15T02:24:13;12.07;;;5.57;;
12675;SDS011;63820;65.654;21.944;2024-02-15T02:27:05;11.13;;;5.30;;
12675;SDS011;63820;65.654;21.944;2024-02-15T02:29:51;13.07;;;5.30;;
12675;SDS011;63820;65.654;21.944;2024-02-15T02:32:36;14.53;;;6.33;;
12675;SDS011;63820;65.654;21.944;2024-02-15T02:35:22;14.43;;;6.13;;
12675;SDS011;63820;65.654;21.944;2024-02-15T02:38:07;10.73;;;5.43;;
12675;SDS011;63820;65.654;21.944;2024-02-15T02:40:51;12.27;;;5.27;;
12675;SDS011;63820;65.654;21.944;2024-02-15T02:43:35;11.70;;;5.23;;
12675;SDS011;63820;65.654;21.944;2024-02-15T02:46:19;13.17;;;5.37;;
12675;SDS011;63820;65.654;21.944;2024-02-15T02:49:02;13.90;;;5.40;;
12675;SDS011;63820;65.654;21.944;2024-02-15T02:51:46;11.33;;;5.57;;
12675;SDS011;63820;65.654;21.944;2024-02-15T02:54:31;11.13;;;5.37;;
12675;SDS011;63820;65.654;21.944;2024-02-15T02:57:15;16.80;;;6.10;;
12675;SDS011;63820;65.654;21.944;2024-02-15T02:59:59;11.20;;;5.47;;
12675;SDS011;63820;65.654;21.944;2024-02-15T03:02:43;15.57;;;6.33;;
12675;SDS011;63820;65.654;21.944;2024-02-15T03:05:27;11.13;;;5.47;;
12675;SDS011;63820;65.654;21.944;2024-02-15T03:08:13;12.47;;;5.33;;
12675;SDS011;63820;65.654;21.944;2024-02-15T03:10:57;10.63;;;5.50;;
12675;SDS011;63820;65.654;21.944;2024-02-15T03:13:41;16.27;;;5.77;;
12675;SDS011;63820;65.654;21.944;2024-02-15T03:16:27;12.90;;;5.70;;
12675;SDS011;63820;65.654;21.944;2024-02-15T03:19:11;10.37;;;4.97;;
12675;SDS011;63820;65.654;21.944;2024-02-15T03:21:55;11.30;;;5.70;;
12675;SDS011;63820;65.654;21.944;2024-02-15T03:24:39;9.33;;;4.63;;
12675;SDS011;63820;65.654;21.944;2024-02-15T03:27:23;14.57;;;6.10;;
12675;SDS011;63820;65.654;21.944;2024-02-15T03:30:07;13.43;;;5.57;;
12675;SDS011;63820;65.654;21.944;2024-02-15T03:32:52;9.57;;;4.90;;
12675;SDS011;63820;65.654;21.944;2024-02-15T03:35:37;15.63;;;6.27;;
12675;SDS011;63820;65.654;21.944;2024-02-15T03:38:21;16.53;;;5.77;;
12675;SDS011;63820;65.654;21.944;2024-02-15T03:41:05;13.83;;;6.07;;
12675;SDS011;63820;65.654;21.944;2024-02-15T03:43:49;14.03;;;5.63;;
12675;SDS011;63820;65.654;21.944;2024-02-15T03:46:34;13.00;;;5.73;;
12675;SDS011;63820;65.654;21.944;2024-02-15T03:49:18;7.43;;;3.70;;
12675;SDS011;63820;65.654;21.944;2024-02-15T03:52:03;14.43;;;6.23;;
12675;SDS011;63820;65.654;21.944;2024-02-15T03:54:48;14.40;;;5.40;;
12675;SDS011;63820;65.654;21.944;2024-02-15T03:57:33;14.40;;;6.10;;
12675;SDS011;63820;65.654;21.944;2024-02-15T04:00:17;12.67;;;5.90;;
12675;SDS011;63820;65.654;21.944;2024-02-15T04:03:04;16.43;;;6.47;;
12675;SDS011;63820;65.654;21.944;2024-02-15T04:05:48;12.67;;;5.97;;
12675;SDS011;63820;65.654;21.944;2024-02-15T04:08:32;12.20;;;5.63;;
12675;SDS011;63820;65.654;21.944;2024-02-15T04:11:17;18.03;;;6.73;;
12675;SDS011;63820;65.654;21.944;2024-02-15T04:14:03;11.13;;;4.60;;
12675;SDS011;63820;65.654;21.944;2024-02-15T04:16:47;19.83;;;7.27;;
12675;SDS011;63820;65.654;21.944;2024-02-15T04:19:31;11.87;;;4.67;;
12675;SDS011;63820;65.654;21.944;2024-02-15T04:22:16;12.13;;;5.77;;
12675;SDS011;63820;65.654;21.944;2024-02-15T04:25:00;13.67;;;6.13;;
12675;SDS011;63820;65.654;21.944;2024-02-15T04:27:45;10.47;;;5.53;;
12675;SDS011;63820;65.654;21.944;2024-02-15T04:30:30;15.23;;;5.77;;
12675;SDS011;63820;65.654;21.944;2024-02-15T04:33:15;14.97;;;6.33;;
12675;SDS011;63820;65.654;21.944;2024-02-15T04:36:00;11.17;;;5.60;;
12675;SDS011;63820;65.654;21.944;2024-02-15T04:38:50;11.43;;;5.33;;
12675;SDS011;63820;65.654;21.944;2024-02-15T04:41:35;4.13;;;2.80;;
12675;SDS011;63820;65.654;21.944;2024-02-15T04:44:19;13.67;;;5.90;;
12675;SDS011;63820;65.654;21.944;2024-02-15T04:47:11;10.03;;;5.47;;
12675;SDS011;63820;65.654;21.944;2024-02-15T04:49:54;17.97;;;6.50;;
12675;SDS011;63820;65.654;21.944;2024-02-15T04:52:38;12.33;;;5.17;;
12675;SDS011;63820;65.654;21.944;2024-02-15T04:55:22;15.27;;;7.07;;
12675;SDS011;63820;65.654;21.944;2024-02-15T04:58:06;13.00;;;5.30;;
12675;SDS011;63820;65.654;21.944;2024-02-15T05:00:54;12.90;;;5.93;;
12675;SDS011;63820;65.654;21.944;2024-02-15T05:03:46;12.90;;;6.40;;
12675;SDS011;63820;65.654;21.944;2024-02-15T05:06:30;14.23;;;6.00;;
12675;SDS011;63820;65.654;21.944;2024-02-15T05:09:16;14.60;;;6.00;;
12675;SDS011;63820;65.654;21.944;2024-02-15T05:12:02;13.80;;;6.37;;
12675;SDS011;63820;65.654;21.944;2024-02-15T05:14:46;14.67;;;5.40;;
12675;SDS011;63820;65.654;21.944;2024-02-15T05:17:30;13.30;;;5.63;;
12675;SDS011;63820;65.654;21.944;2024-02-15T05:20:15;14.33;;;5.67;;
12675;SDS011;63820;65.654;21.944;2024-02-15T05:22:59;12.23;;;4.97;;
12675;SDS011;63820;65.654;21.944;2024-02-15T05:25:47;11.80;;;5.60;;
12675;SDS011;63820;65.654;21.944;2024-02-15T05:28:31;12.10;;;6.50;;
12675;SDS011;63820;65.654;21.944;2024-02-15T05:31:22;8.87;;;4.90;;
12675;SDS011;63820;65.654;21.944;2024-02-15T05:34:09;12.10;;;5.63;;
12675;SDS011;63820;65.654;21.944;2024-02-15T05:36:56;11.90;;;4.77;;
12675;SDS011;63820;65.654;21.944;2024-02-15T05:39:39;13.07;;;5.40;;
12675;SDS011;63820;65.654;21.944;2024-02-15T05:42:25;11.60;;;5.50;;
12675;SDS011;63820;65.654;21.944;2024-02-15T05:48:23;13.93;;;5.87;;
12675;SDS011;63820;65.654;21.944;2024-02-15T05:51:08;11.83;;;5.47;;
12675;SDS011;63820;65.654;21.944;2024-02-15T05:53:52;10.77;;;5.27;;
12675;SDS011;63820;65.654;21.944;2024-02-15T05:56:42;11.47;;;5.60;;
12675;SDS011;63820;65.654;21.944;2024-02-15T05:59:26;8.80;;;4.50;;
12675;SDS011;63820;65.654;21.944;2024-02-15T06:02:10;14.90;;;5.83;;
12675;SDS011;63820;65.654;21.944;2024-02-15T06:04:55;12.03;;;6.10;;
12675;SDS011;63820;65.654;21.944;2024-02-15T06:07:45;9.27;;;5.33;;
12675;SDS011;63820;65.654;21.944;2024-02-15T06:10:29;13.97;;;6.13;;
12675;SDS011;63820;65.654;21.944;2024-02-15T06:13:14;13.50;;;5.83;;
12675;SDS011;63820;65.654;21.944;2024-02-15T06:15:58;12.37;;;5.67;;
12675;SDS011;63820;65.654;21.944;2024-02-15T06:18:42;15.10;;;7.00;;
12675;SDS011;63820;65.654;21.944;2024-02-15T06:21:26;12.97;;;6.27;;
12675;SDS011;63820;65.654;21.944;2024-02-15T06:24:12;10.13;;;5.23;;
12675;SDS011;63820;65.654;21.944;2024-02-15T06:26:57;11.73;;;5.47;;
12675;SDS011;63820;65.654;21.944;2024-02-15T06:29:43;12.93;;;6.30;;
12675;SDS011;63820;65.654;21.944;2024-02-15T06:32:46;11.40;;;5.63;;
12675;SDS011;63820;65.654;21.944;2024-02-15T06:35:49;12.90;;;6.13;;
12675;SDS011;63820;65.654;21.944;2024-02-15T06:38:52;12.20;;;5.33;;
12675;SDS011;63820;65.654;21.944;2024-02-15T06:41:55;13.57;;;6.50;;
12675;SDS011;63820;65.654;21.944;2024-02-15T06:44:40;12.87;;;6.13;;
12675;SDS011;63820;65.654;21.944;2024-02-15T06:47:24;14.33;;;6.47;;
12675;SDS011;63820;65.654;21.944;2024-02-15T06:50:10;12.07;;;5.43;;
12675;SDS011;63820;65.654;21.944;2024-02-15T06:52:55;10.53;;;5.10;;
12675;SDS011;63820;65.654;21.944;2024-02-15T06:55:39;13.50;;;6.23;;
12675;SDS011;63820;65.654;21.944;2024-02-15T06:58:23;11.40;;;6.00;;
12675;SDS011;63820;65.654;21.944;2024-02-15T07:01:08;13.37;;;5.97;;
12675;SDS011;63820;65.654;21.944;2024-02-15T07:03:52;14.07;;;5.67;;
12675;SDS011;63820;65.654;21.944;2024-02-15T07:06:36;15.87;;;6.47;;
12675;SDS011;63820;65.654;21.944;2024-02-15T07:09:21;12.37;;;5.63;;
12675;SDS011;63820;65.654;21.944;2024-02-15T07:12:07;12.13;;;5.97;;
12675;SDS011;63820;65.654;21.944;2024-02-15T07:14:51;10.07;;;5.37;;
12675;SDS011;63820;65.654;21.944;2024-02-15T07:17:36;12.43;;;6.30;;
12675;SDS011;63820;65.654;21.944;2024-02-15T07:20:23;14.63;;;6.70;;
12675;SDS011;63820;65.654;21.944;2024-02-15T07:23:07;13.17;;;5.87;;
12675;SDS011;63820;65.654;21.944;2024-02-15T07:25:51;10.60;;;5.23;;
12675;SDS011;63820;65.654;21.944;2024-02-15T07:28:37;12.60;;;5.50;;
12675;SDS011;63820;65.654;21.944;2024-02-15T07:31:21;12.63;;;5.97;;
12675;SDS011;63820;65.654;21.944;2024-02-15T07:34:06;12.50;;;6.40;;
12675;SDS011;63820;65.654;21.944;2024-02-15T07:36:50;11.33;;;6.03;;
12675;SDS011;63820;65.654;21.944;2024-02-15T07:39:35;12.67;;;5.30;;
12675;SDS011;63820;65.654;21.944;2024-02-15T07:42:20;11.73;;;4.97;;
12675;SDS011;63820;65.654;21.944;2024-02-15T07:45:04;12.20;;;5.40;;
12675;SDS011;63820;65.654;21.944;2024-02-15T07:47:50;12.83;;;5.80;;
12675;SDS011;63820;65.654;21.944;2024-02-15T07:50:34;12.37;;;5.77;;
12675;SDS011;63820;65.654;21.944;2024-02-15T07:53:20;14.47;;;5.77;;
12675;SDS011;63820;65.654;21.944;2024-02-15T07:56:04;11.13;;;4.93;;
12675;SDS011;63820;65.654;21.944;2024-02-15T07:58:49;14.87;;;6.00;;
12675;SDS011;63820;65.654;21.944;2024-02-15T08:01:35;12.10;;;5.73;;
12675;SDS011;63820;65.654;21.944;2024-02-15T08:04:19;14.13;;;6.13;;
12675;SDS011;63820;65.654;21.944;2024-02-15T08:07:08;12.03;;;4.87;;
12675;SDS011;63820;65.654;21.944;2024-02-15T08:09:54;12.57;;;5.63;;
12675;SDS011;63820;65.654;21.944;2024-02-15T08:12:45;10.73;;;5.70;;
12675;SDS011;63820;65.654;21.944;2024-02-15T08:15:30;10.23;;;5.10;;
12675;SDS011;63820;65.654;21.944;2024-02-15T08:18:14;14.10;;;5.30;;
12675;SDS011;63820;65.654;21.944;2024-02-15T08:20:58;12.07;;;5.17;;
12675;SDS011;63820;65.654;21.944;2024-02-15T08:23:42;11.73;;;5.00;;
12675;SDS011;63820;65.654;21.944;2024-02-15T08:26:26;9.13;;;4.50;;
12675;SDS011;63820;65.654;21.944;2024-02-15T08:29:11;11.03;;;5.43;;
12675;SDS011;63820;65.654;21.944;2024-02-15T08:31:55;11.93;;;5.47;;
12675;SDS011;63820;65.654;21.944;2024-02-15T08:34:39;11.97;;;5.57;;
12675;SDS011;63820;65.654;21.944;2024-02-15T08:37:23;9.57;;;5.07;;
12675;SDS011;63820;65.654;21.944;2024-02-15T08:40:08;13.40;;;5.77;;
12675;SDS011;63820;65.654;21.944;2024-02-15T08:42:58;9.83;;;5.13;;
12675;SDS011;63820;65.654;21.944;2024-02-15T08:45:43;13.80;;;6.13;;
12675;SDS011;63820;65.654;21.944;2024-02-15T08:48:27;14.00;;;6.07;;
12675;SDS011;63820;65.654;21.944;2024-02-15T08:51:11;13.33;;;5.87;;
12675;SDS011;63820;65.654;21.944;2024-02-15T08:53:56;11.20;;;5.57;;
12675;SDS011;63820;65.654;21.944;2024-02-15T08:56:40;8.23;;;5.27;;
12675;SDS011;63820;65.654;21.944;2024-02-15T08:59:24;15.40;;;6.87;;
12675;SDS011;63820;65.654;21.944;2024-02-15T09:02:08;14.93;;;6.03;;
12675;SDS011;63820;65.654;21.944;2024-02-15T09:04:52;10.77;;;6.00;;
12675;SDS011;63820;65.654;21.944;2024-02-15T09:07:36;13.63;;;6.87;;
12675;SDS011;63820;65.654;21.944;2024-02-15T09:10:20;12.33;;;6.33;;
12675;SDS011;63820;65.654;21.944;2024-02-15T09:13:07;12.70;;;5.87;;
12675;SDS011;63820;65.654;21.944;2024-02-15T09:15:52;11.67;;;5.70;;
12675;SDS011;63820;65.654;21.944;2024-02-15T09:18:36;12.37;;;5.50;;
12675;SDS011;63820;65.654;21.944;2024-02-15T09:21:21;14.20;;;6.70;;
12675;SDS011;63820;65.654;21.944;2024-02-15T09:24:05;12.50;;;5.53;;
12675;SDS011;63820;65.654;21.944;2024-02-15T09:26:50;11.03;;;5.27;;
12675;SDS011;63820;65.654;21.944;2024-02-15T09:29:33;9.13;;;5.63;;
12675;SDS011;63820;65.654;21.944;2024-02-15T09:32:17;10.73;;;5.83;;
12675;SDS011;63820;65.654;21.944;2024-02-15T09:35:02;11.57;;;5.53;;
12675;SDS011;63820;65.654;21.944;2024-02-15T09:37:46;13.13;;;5.77;;
12675;SDS011;63820;65.654;21.944;2024-02-15T09:40:36;10.40;;;5.70;;
12675;SDS011;63820;65.654;21.944;2024-02-15T09:43:20;11.47;;;5.60;;
12675;SDS011;63820;65.654;21.944;2024-02-15T09:46:05;12.00;;;6.27;;
12675;SDS011;63820;65.654;21.944;2024-02-15T09:48:50;10.70;;;5.50;;
12675;SDS011;63820;65.654;21.944;2024-02-15T09:51:35;11.77;;;5.97;;
12675;SDS011;63820;65.654;21.944;2024-02-15T09:54:21;9.93;;;5.13;;
12675;SDS011;63820;65.654;21.944;2024-02-15T09:57:06;10.60;;;5.57;;
12675;SDS011;63820;65.654;21.944;2024-02-15T09:59:51;10.83;;;5.50;;
12675;SDS011;63820;65.654;21.944;2024-02-15T10:02:36;14.50;;;5.90;;
12675;SDS011;63820;65.654;21.944;2024-02-15T10:05:22;13.43;;;5.67;;
12675;SDS011;63820;65.654;21.944;2024-02-15T10:08:07;14.13;;;6.03;;
12675;SDS011;63820;65.654;21.944;2024-02-15T10:11:10;13.70;;;6.00;;
12675;SDS011;63820;65.654;21.944;2024-02-15T10:13:54;12.83;;;6.00;;
12675;SDS011;63820;65.654;21.944;2024-02-15T10:16:54;10.67;;;5.90;;
12675;SDS011;63820;65.654;21.944;2024-02-15T10:19:39;14.63;;;7.33;;
12675;SDS011;63820;65.654;21.944;2024-02-15T10:22:23;14.53;;;7.73;;
12675;SDS011;63820;65.654;21.944;2024-02-15T10:25:11;13.73;;;7.50;;
12675;SDS011;63820;65.654;21.944;2024-02-15T10:30:50;15.77;;;7.73;;
12675;SDS011;63820;65.654;21.944;2024-02-15T10:33:37;17.53;;;8.20;;
12675;SDS011;63820;65.654;21.944;2024-02-15T10:36:21;17.40;;;7.80;;
12675;SDS011;63820;65.654;21.944;2024-02-15T10:39:14;14.20;;;7.20;;
12675;SDS011;63820;65.654;21.944;2024-02-15T10:42:07;14.53;;;7.27;;
12675;SDS011;63820;65.654;21.944;2024-02-15T10:44:55;16.37;;;7.70;;
12675;SDS011;63820;65.654;21.944;2024-02-15T10:47:38;15.13;;;7.40;;
12675;SDS011;63820;65.654;21.944;2024-02-15T10:50:24;12.40;;;6.07;;
12675;SDS011;63820;65.654;21.944;2024-02-15T10:53:15;13.60;;;6.63;;
12675;SDS011;63820;65.654;21.944;2024-02-15T10:56:12;19.63;;;8.47;;
12675;SDS011;63820;65.654;21.944;2024-02-15T10:59:16;13.43;;;7.37;;
12675;SDS011;63820;65.654;21.944;2024-02-15T11:02:01;13.03;;;6.23;;
12675;SDS011;63820;65.654;21.944;2024-02-15T11:04:55;13.30;;;5.97;;
12675;SDS011;63820;65.654;21.944;2024-02-15T11:07:47;12.17;;;6.17;;
12675;SDS011;63820;65.654;21.944;2024-02-15T11:10:31;14.70;;;6.50;;
12675;SDS011;63820;65.654;21.944;2024-02-15T11:13:15;13.27;;;6.43;;
12675;SDS011;63820;65.654;21.944;2024-02-15T11:16:00;12.70;;;6.93;;
12675;SDS011;63820;65.654;21.944;2024-02-15T11:18:45;13.60;;;6.37;;
12675;SDS011;63820;65.654;21.944;2024-02-15T11:21:54;13.03;;;6.03;;
12675;SDS011;63820;65.654;21.944;2024-02-15T11:24:51;10.10;;;6.20;;
12675;SDS011;63820;65.654;21.944;2024-02-15T11:27:36;15.50;;;6.13;;
12675;SDS011;63820;65.654;21.944;2024-02-15T11:30:31;10.57;;;6.20;;
12675;SDS011;63820;65.654;21.944;2024-02-15T11:33:31;13.07;;;6.53;;
12675;SDS011;63820;65.654;21.944;2024-02-15T11:36:19;11.83;;;6.43;;
12675;SDS011;63820;65.654;21.944;2024-02-15T11:42:43;15.03;;;6.83;;
12675;SDS011;63820;65.654;21.944;2024-02-15T11:45:31;13.90;;;6.40;;
12675;SDS011;63820;65.654;21.944;2024-02-15T11:48:22;13.93;;;6.67;;
12675;SDS011;63820;65.654;21.944;2024-02-15T11:51:06;16.77;;;6.97;;
12675;SDS011;63820;65.654;21.944;2024-02-15T11:56:51;17.60;;;7.47;;
12675;SDS011;63820;65.654;21.944;2024-02-15T11:59:48;11.63;;;5.80;;
12675;SDS011;63820;65.654;21.944;2024-02-15T12:02:51;12.70;;;6.77;;
12675;SDS011;63820;65.654;21.944;2024-02-15T12:05:54;8.80;;;5.60;;
12675;SDS011;63820;65.654;21.944;2024-02-15T12:08:57;14.13;;;6.70;;
12675;SDS011;63820;65.654;21.944;2024-02-15T12:12:00;13.07;;;6.47;;
12675;SDS011;63820;65.654;21.944;2024-02-15T12:15:04;13.97;;;7.00;;
12675;SDS011;63820;65.654;21.944;2024-02-15T12:18:14;11.97;;;6.03;;
12675;SDS011;63820;65.654;21.944;2024-02-15T12:21:19;10.63;;;5.70;;
12675;SDS011;63820;65.654;21.944;2024-02-15T12:24:08;9.53;;;5.10;;
12675;SDS011;63820;65.654;21.944;2024-02-15T12:26:59;10.30;;;5.87;;
12675;SDS011;63820;65.654;21.944;2024-02-15T12:29:45;14.97;;;6.30;;
12675;SDS011;63820;65.654;21.944;2024-02-15T12:32:31;13.47;;;6.07;;
12675;SDS011;63820;65.654;21.944;2024-02-15T12:35:15;13.00;;;6.57;;
12675;SDS011;63820;65.654;21.944;2024-02-15T12:38:03;8.70;;;4.30;;
12675;SDS011;63820;65.654;21.944;2024-02-15T12:40:51;14.13;;;6.77;;
12675;SDS011;63820;65.654;21.944;2024-02-15T12:43:36;11.93;;;6.10;;
12675;SDS011;63820;65.654;21.944;2024-02-15T12:46:20;12.07;;;5.97;;
12675;SDS011;63820;65.654;21.944;2024-02-15T12:49:09;9.87;;;5.13;;
12675;SDS011;63820;65.654;21.944;2024-02-15T12:52:44;10.77;;;5.97;;
12675;SDS011;63820;65.654;21.944;2024-02-15T12:55:22;11.10;;;6.03;;
12675;SDS011;63820;65.654;21.944;2024-02-15T12:58:14;10.37;;;5.40;;
12675;SDS011;63820;65.654;21.944;2024-02-15T13:00:58;8.30;;;5.20;;
12675;SDS011;63820;65.654;21.944;2024-02-15T13:03:42;8.27;;;5.13;;
12675;SDS011;63820;65.654;21.944;2024-02-15T13:06:26;10.93;;;5.87;;
12675;SDS011;63820;65.654;21.944;2024-02-15T13:09:10;9.87;;;5.60;;
12675;SDS011;63820;65.654;21.944;2024-02-15T13:11:56;10.87;;;5.67;;
12675;SDS011;63820;65.654;21.944;2024-02-15T13:14:42;9.30;;;4.67;;
12675;SDS011;63820;65.654;21.944;2024-02-15T13:17:26;8.80;;;4.83;;
12675;SDS011;63820;65.654;21.944;2024-02-15T13:20:11;8.70;;;4.60;;
12675;SDS011;63820;65.654;21.944;2024-02-15T13:23:01;7.73;;;4.53;;
12675;SDS011;63820;65.654;21.944;2024-02-15T13:25:52;7.40;;;5.00;;
12675;SDS011;63820;65.654;21.944;2024-02-15T13:28:36;10.43;;;4.97;;
12675;SDS011;63820;65.654;21.944;2024-02-15T13:31:20;9.03;;;5.00;;
12675;SDS011;63820;65.654;21.944;2024-02-15T13:34:04;8.97;;;5.40;;
12675;SDS011;63820;65.654;21.944;2024-02-15T13:36:49;10.63;;;5.23;;
12675;SDS011;63820;65.654;21.944;2024-02-15T13:39:33;9.47;;;4.67;;
12675;SDS011;63820;65.654;21.944;2024-02-15T13:42:18;8.50;;;5.30;;
12675;SDS011;63820;65.654;21.944;2024-02-15T13:45:01;8.10;;;4.53;;
12675;SDS011;63820;65.654;21.944;2024-02-15T13:47:46;9.30;;;5.20;;
12675;SDS011;63820;65.654;21.944;2024-02-15T13:50:34;10.20;;;5.60;;
12675;SDS011;63820;65.654;21.944;2024-02-15T13:53:19;9.37;;;4.90;;
12675;SDS011;63820;65.654;21.944;2024-02-15T13:56:03;9.83;;;4.77;;
12675;SDS011;63820;65.654;21.944;2024-02-15T13:58:48;11.57;;;5.40;;
12675;SDS011;63820;65.654;21.944;2024-02-15T14:01:32;7.97;;;4.77;;
12675;SDS011;63820;65.654;21.944;2024-02-15T14:04:17;11.77;;;5.37;;
12675;SDS011;63820;65.654;21.944;2024-02-15T14:07:01;10.63;;;5.27;;
12675;SDS011;63820;65.654;21.944;2024-02-15T14:09:45;10.67;;;5.30;;
12675;SDS011;63820;65.654;21.944;2024-02-15T14:12:29;10.30;;;4.77;;
12675;SDS011;63820;65.654;21.944;2024-02-15T14:15:14;10.67;;;5.00;;
12675;SDS011;63820;65.654;21.944;2024-02-15T14:17:58;10.47;;;5.13;;
12675;SDS011;63820;65.654;21.944;2024-02-15T14:20:45;10.60;;;5.10;;
12675;SDS011;63820;65.654;21.944;2024-02-15T14:23:32;9.33;;;5.23;;
12675;SDS011;63820;65.654;21.944;2024-02-15T14:26:17;9.60;;;5.13;;
12675;SDS011;63820;65.654;21.944;2024-02-15T14:29:01;10.27;;;5.47;;
12675;SDS011;63820;65.654;21.944;2024-02-15T14:31:46;12.20;;;5.57;;
12675;SDS011;63820;65.654;21.944;2024-02-15T14:34:50;10.80;;;5.70;;
12675;SDS011;63820;65.654;21.944;2024-02-15T14:37:34;9.83;;;5.53;;
12675;SDS011;63820;65.654;21.944;2024-02-15T14:40:18;11.20;;;5.70;;
12675;SDS011;63820;65.654;21.944;2024-02-15T14:43:02;11.37;;;5.47;;
12675;SDS011;63820;65.654;21.944;2024-02-15T14:45:48;9.93;;;5.27;;
12675;SDS011;63820;65.654;21.944;2024-02-15T14:48:33;12.80;;;6.50;;
12675;SDS011;63820;65.654;21.944;2024-02-15T14:51:18;12.80;;;5.20;;
12675;SDS011;63820;65.654;21.944;2024-02-15T14:54:02;11.27;;;5.77;;
12675;SDS011;63820;65.654;21.944;2024-02-15T14:56:47;10.97;;;5.50;;
12675;SDS011;63820;65.654;21.944;2024-02-15T14:59:32;12.97;;;5.87;;
12675;SDS011;63820;65.654;21.944;2024-02-15T15:02:18;15.50;;;6.03;;
12675;SDS011;63820;65.654;21.944;2024-02-15T15:05:02;15.63;;;6.30;;
12675;SDS011;63820;65.654;21.944;2024-02-15T15:08:05;11.47;;;6.13;;
12675;SDS011;63820;65.654;21.944;2024-02-15T15:11:09;11.97;;;6.13;;
12675;SDS011;63820;65.654;21.944;2024-02-15T15:14:12;12.67;;;5.93;;
12675;SDS011;63820;65.654;21.944;2024-02-15T15:16:57;12.93;;;5.93;;
12675;SDS011;63820;65.654;21.944;2024-02-15T15:19:41;13.17;;;6.27;;
12675;SDS011;63820;65.654;21.944;2024-02-15T15:22:25;16.27;;;7.00;;
12675;SDS011;63820;65.654;21.944;2024-02-15T15:25:09;16.73;;;7.27;;
12675;SDS011;63820;65.654;21.944;2024-02-15T15:27:53;15.77;;;7.13;;
12675;SDS011;63820;65.654;21.944;2024-02-15T15:30:38;16.47;;;6.80;;
12675;SDS011;63820;65.654;21.944;2024-02-15T15:33:22;17.53;;;6.13;;
12675;SDS011;63820;65.654;21.944;2024-02-15T15:36:06;17.53;;;7.27;;
12675;SDS011;63820;65.654;21.944;2024-02-15T15:38:50;19.37;;;8.13;;
12675;SDS011;63820;65.654;21.944;2024-02-15T15:41:35;18.50;;;7.20;;
12675;SDS011;63820;65.654;21.944;2024-02-15T15:44:21;20.43;;;7.77;;
12675;SDS011;63820;65.654;21.944;2024-02-15T15:47:06;15.97;;;6.97;;
12675;SDS011;63820;65.654;21.944;2024-02-15T15:49:50;21.93;;;7.50;;
12675;SDS011;63820;65.654;21.944;2024-02-15T15:52:36;15.23;;;7.87;;
12675;SDS011;63820;65.654;21.944;2024-02-15T15:55:21;22.30;;;7.90;;
12675;SDS011;63820;65.654;21.944;2024-02-15T15:58:06;22.97;;;9.23;;
12675;SDS011;63820;65.654;21.944;2024-02-15T16:00:50;20.20;;;8.10;;
12675;SDS011;63820;65.654;21.944;2024-02-15T16:03:35;23.07;;;8.40;;
12675;SDS011;63820;65.654;21.944;2024-02-15T16:06:19;23.30;;;8.43;;
12675;SDS011;63820;65.654;21.944;2024-02-15T16:09:03;26.70;;;8.97;;
12675;SDS011;63820;65.654;21.944;2024-02-15T16:11:47;23.93;;;8.97;;
12675;SDS011;63820;65.654;21.944;2024-02-15T16:14:32;21.83;;;8.67;;
12675;SDS011;63820;65.654;21.944;2024-02-15T16:17:24;23.53;;;8.90;;
12675;SDS011;63820;65.654;21.944;2024-02-15T16:20:08;23.80;;;8.33;;
12675;SDS011;63820;65.654;21.944;2024-02-15T16:22:54;25.27;;;9.07;;
12675;SDS011;63820;65.654;21.944;2024-02-15T16:25:38;23.83;;;8.77;;
12675;SDS011;63820;65.654;21.944;2024-02-15T16:28:22;38.27;;;10.10;;